Αναφορές METAR από Ελληνικά Αεροδρόμια

Σε αυτή τη σελίδα, μπορείτε να παρακολουθείτε τις αναφορές METAR που προέρχονται από τα κυριότερα αεροδρόμια της Ελλάδας. Το περιεχόμενο αποκωδικοποιείται, οπτικοποιείται και γίνεται κατανοητό από τον καθένα με τη χρήση του όμορφου δίγλωσσου γραφικού περιβάλλοντος του meteothes.gr!

Η αρχική κωδικοποιημένη αναφορά, συμπεριλαμβάνεται επίσης στο κάτω μέρος. Σε όποια καθεστερεί η ενημέρωση, το προειδοποιητικό μήνυμα "Μη ενημερωμένο METAR!" εμφανίζεται στο πάνω μέρος της με κόκκινα γράμματα.

Εχουν προστεθεί επίσης δύο αεροδρόμια από γειτονικές χώρες, την Οχρίδα(ΠΓΔΜ) και την Σόφια(Βουλγαρία) για να ελέγχουμε την εξέλιξη των ψυχρών εισβολών από τα Βόρεια!

LGTS - Thessaloniki/Makedonia-Elev 7m
Απόσταση από meteothes.gr: Ν 13km
Ενημερώθηκε: 04/03/2024 06:50
Κυρίως νεφελώδης
Κυρίως νεφελώδης
 Ανεμος από ΑΝΑ
Ανεμος: ΑΝΑ 4 km/h
Θερμοκρασία: 11°C
Σημ. Δρόσου: 11°C
Υγρασία: 100%
Βαρόμετρο: 1014 hPa
Νέφωση: Κυρίως νεφελώδης
Ορατότητα: 10 km
Λεπτομέρειες Νεφών: Κυρίως νεφελώδης 1067 m
2024/03/04 04:50 LGTS 040450Z 11002KT 9999 BKN035 11/11 Q1014 NOSIG
LGAV - Athens/Elef. Venizelos-Elev 94m
Απόσταση από meteothes.gr: ΝΝΑ 312km
Ενημερώθηκε: 04/03/2024 06:50
Διάσπαρτα Nέφη
Διάσπαρτα Nέφη
 Ανεμος από Β
Ανεμος: Β 2 km/h
Θερμοκρασία: 7°C
Σημ. Δρόσου: 4°C
Υγρασία: 81%
Βαρόμετρο: 1014 hPa
Νέφωση: Διάσπαρτα Nέφη
Ορατότητα: 10 km
Λεπτομέρειες Νεφών: Διάσπαρτα Nέφη 762 m
2024/03/04 04:50 LGAV 040450Z 36001KT 9999 FEW025 07/04 Q1014 NOSIG
 
LGAL - Alexandroupolis-Elev 3m
Απόσταση από meteothes.gr: Α 251km
Ενημερώθηκε: 04/03/2024 06:50
Καταχνιά, Διάσπαρτα νέφη
Καταχνιά, Διάσπαρτα νέφη
 Ανεμος από άπνοια
Ανεμος: άπνοια
Θερμοκρασία: 4°C
Σημ. Δρόσου: 3°C
Υγρασία: 93%
Βαρόμετρο: 1015 hPa
Συνθήκες: Καταχνιά
Νέφωση: Διάσπαρτα Nέφη
Ορατότητα: 4 km
Λεπτομέρειες Νεφών: Διάσπαρτα Nέφη 305 m
2024/03/04 04:50 LGAL 040450Z 00000KT 4000 BR FEW010 04/03 Q1015
LGKV - Kavala/Crysoupolis-Elev 5m
Απόσταση από meteothes.gr: ΑΒΑ 144km
Ενημερώθηκε: 04/03/2024 06:50
Κυρίως νεφελώδης
Κυρίως νεφελώδης
 Ανεμος από μεταβλητός
Ανεμος: μεταβλητός 6 km/h
Θερμοκρασία: 10°C
Σημ. Δρόσου: 8°C
Υγρασία: 88%
Βαρόμετρο: 1014 hPa
Νέφωση: Κυρίως νεφελώδης
Ορατότητα: 10 km
Λεπτομέρειες Νεφών: Διάσπαρτα Nέφη 305 m
Μερικώς νεφελώδης 610 m
Κυρίως νεφελώδης 2438 m
2024/03/04 04:50 LGKV 040450Z VRB03KT 9999 FEW010 SCT020 BKN080 10/08 Q1014
 
LGSK - Skiathos Island-Elev 15m
Απόσταση από meteothes.gr: ΝΝΑ 168km
Ενημερώθηκε: 03/03/2024 13:50
ΜΗ Ενημερωμένο METAR!
Διάσπαρτα Nέφη
Διάσπαρτα Nέφη
 Ανεμος από μεταβλητός
Ανεμος: μεταβλητός 4 km/h
Θερμοκρασία: 18°C
Σημ. Δρόσου: 13°C
Υγρασία: 73%
Βαρόμετρο: 1013 hPa
Νέφωση: Διάσπαρτα Nέφη
Ορατότητα: 10 km
Λεπτομέρειες Νεφών: Διάσπαρτα Nέφη 549 m
2024/03/03 11:50 LGSK 031150Z VRB02KT 9999 FEW018 18/13 Q1013
LGLM - Limnos Island-Elev 5m
Απόσταση από meteothes.gr: ΑΝΑ 210km
Ενημερώθηκε: 04/03/2024 06:50
Μερικώς νεφελώδης
Μερικώς νεφελώδης
 Ανεμος από άπνοια
Ανεμος: άπνοια
Θερμοκρασία: 8°C
Σημ. Δρόσου: 7°C
Υγρασία: 93%
Βαρόμετρο: 1014 hPa
Νέφωση: Μερικώς νεφελώδης
Ορατότητα: 6 km
2024/03/04 04:50 LGLM 040450Z 00000KT 6000 NSC 08/07 Q1014
 
LGMT - Mitilini Island-Elev 17m
Απόσταση από meteothes.gr: ΑΝΑ 358km
Ενημερώθηκε: 04/03/2024 06:50
Διάσπαρτα Nέφη
Διάσπαρτα Nέφη
 Ανεμος από ΔΝΔ
Ανεμος: ΔΝΔ 7 km/h
Θερμοκρασία: 10°C
Αίσθηση Ψύχρας: 9°C
Σημ. Δρόσου: 6°C
Υγρασία: 76%
Βαρόμετρο: 1015 hPa
Νέφωση: Διάσπαρτα Nέφη
Ορατότητα: 10 km
Λεπτομέρειες Νεφών: Διάσπαρτα Nέφη 762 m
2024/03/04 04:50 LGMT 040450Z 25004KT 9999 FEW025 10/06 Q1015
LGSY - Skiros Island-Elev 15m
Απόσταση από meteothes.gr: ΝΑ 227km
Ενημερώθηκε: 04/03/2024 06:50
Αίθριος
Αίθριος
 Ανεμος από μεταβλητός
Ανεμος: μεταβλητός 4 km/h
Θερμοκρασία: 10°C
Σημ. Δρόσου: 8°C
Υγρασία: 88%
Βαρόμετρο: 1014 hPa
Συνθήκες: Αίθριος
Ορατότητα: πάνω από 10 km
2024/03/04 04:50 LGSY 040450Z VRB02KT CAVOK 10/08 Q1014 BLU
 
LGKZ - Kozani-Elev 628m
Απόσταση από meteothes.gr: ΔΝΔ 102km
Ενημερώθηκε: 04/03/2024 06:50

 Ανεμος από ΒΒΔ
Ανεμος: ΒΒΔ 7 km/h
Θερμοκρασία: 4°C
Αίσθηση Ψύχρας: 2°C
Σημ. Δρόσου: 3°C
Υγρασία: 93%
Βαρόμετρο: 1014 hPa
2024/03/04 04:50 LGKZ 040450Z AUTO 34004KT //// // ////// 04/03 Q1014 RE//
LGIO - Ioannina-Elev 476m
Απόσταση από meteothes.gr: ΔΝΔ 209km
Ενημερώθηκε: 04/03/2024 06:50

 Ανεμος από άπνοια
Ανεμος: άπνοια
Θερμοκρασία: 2°C
Σημ. Δρόσου: 2°C
Υγρασία: 100%
Βαρόμετρο: 1014 hPa
2024/03/04 04:50 LGIO 040450Z AUTO 00000KT //// // ////// 02/02 Q1014 RE//
 
LGZA - Zakinthos-Elev 3m
Απόσταση από meteothes.gr: ΝΝΔ 367km
Ενημερώθηκε: 03/03/2024 20:20
ΜΗ Ενημερωμένο METAR!
Διάσπαρτα Nέφη
Διάσπαρτα Nέφη
 Ανεμος από άπνοια
Ανεμος: άπνοια
Θερμοκρασία: 11°C
Σημ. Δρόσου: 10°C
Υγρασία: 94%
Βαρόμετρο: 1015 hPa
Νέφωση: Διάσπαρτα Nέφη
Ορατότητα: 10 km
Λεπτομέρειες Νεφών: Διάσπαρτα Nέφη 549 m
2024/03/03 18:20 LGZA 031820Z 00000KT 9999 FEW018 11/10 Q1015
LGKR - Corfu Island-Elev 2m
Απόσταση από meteothes.gr: ΔΝΔ 282km
Ενημερώθηκε: 04/03/2024 06:50
Μερικώς νεφελώδης
Μερικώς νεφελώδης
 Ανεμος από ΝΑ
Ανεμος: ΝΑ 19 km/h
Θερμοκρασία: 14°C
Σημ. Δρόσου: 10°C
Υγρασία: 77%
Βαρόμετρο: 1012 hPa
Νέφωση: Μερικώς νεφελώδης
Ορατότητα: 10 km
Λεπτομέρειες Νεφών: Μερικώς νεφελώδης 549 m
2024/03/04 04:50 LGKR 040450Z 13010KT 9999 SCT018 14/10 Q1012 NOSIG
 
LGSO - Syros Island-Elev 72m
Απόσταση από meteothes.gr: ΝΝΑ 397km
Ενημερώθηκε: 04/03/2024 06:50

 Ανεμος από μεταβλητός
Ανεμος: μεταβλητός 6 km/h
Θερμοκρασία: 13°C
Σημ. Δρόσου: 11°C
Υγρασία: 88%
Βαρόμετρο: 1014 hPa
2024/03/04 04:50 LGSO 040450Z AUTO VRB03KT //// // ////// 13/11 Q1014 RE//
LGMK - Mikonos Island-Elev 123m
Απόσταση από meteothes.gr: ΝΝΑ 412km
Ενημερώθηκε: 03/03/2024 19:50
ΜΗ Ενημερωμένο METAR!
Διάσπαρτα Nέφη
Διάσπαρτα Nέφη
 Ανεμος από μεταβλητός
Ανεμος: μεταβλητός 6 km/h
Θερμοκρασία: 14°C
Σημ. Δρόσου: 9°C
Υγρασία: 72%
Βαρόμετρο: 1014 hPa
Νέφωση: Διάσπαρτα Nέφη
Ορατότητα: 10 km
Λεπτομέρειες Νεφών: Διάσπαρτα Nέφη 610 m
2024/03/03 17:50 LGMK 031750Z VRB03KT 9999 FEW020 14/09 Q1014
 
LGSR - Santorini Island-Elev 40m
Απόσταση από meteothes.gr: ΝΝΑ 520km
Ενημερώθηκε: 04/03/2024 06:50
Διάσπαρτα Nέφη
Διάσπαρτα Nέφη
 Ανεμος από άπνοια
Ανεμος: άπνοια
Θερμοκρασία: 12°C
Σημ. Δρόσου: 10°C
Υγρασία: 88%
Βαρόμετρο: 1014 hPa
Νέφωση: Διάσπαρτα Nέφη
Ορατότητα: 10 km
Λεπτομέρειες Νεφών: Διάσπαρτα Nέφη 610 m
2024/03/04 04:50 LGSR 040450Z 00000KT 9999 FEW020 12/10 Q1014
LGKL - Kalamata-Elev 8m
Απόσταση από meteothes.gr: Ν 405km
Ενημερώθηκε: 04/03/2024 06:50
Αίθριος
Αίθριος
 Ανεμος από μεταβλητός
Ανεμος: μεταβλητός 6 km/h
Θερμοκρασία: 5°C
Σημ. Δρόσου: 5°C
Υγρασία: 100%
Βαρόμετρο: 1015 hPa
Συνθήκες: Αίθριος
Ορατότητα: πάνω από 10 km
2024/03/04 04:50 LGKL 040450Z VRB03KT CAVOK 05/05 Q1015
 
LGIR - Iraklion/Crete-Elev 5m
Απόσταση από meteothes.gr: ΝΝΑ 622km
Ενημερώθηκε: 04/03/2024 06:50
Διάσπαρτα Nέφη
Διάσπαρτα Nέφη
 Ανεμος από ΝΝΑ
Ανεμος: ΝΝΑ 19 km/h
Θερμοκρασία: 10°C
Αίσθηση Ψύχρας: 7°C
Σημ. Δρόσου: 9°C
Υγρασία: 94%
Βαρόμετρο: 1015 hPa
Νέφωση: Διάσπαρτα Nέφη
Ορατότητα: 10 km
Λεπτομέρειες Νεφών: Διάσπαρτα Nέφη 762 m
2024/03/04 04:50 LGIR 040450Z 16010KT 9999 FEW025 10/09 Q1015 NOSIG
LGRP - Rhodes-Elev 5m
Απόσταση από meteothes.gr: ΝΑ 649km
Ενημερώθηκε: 04/03/2024 06:50
Διάσπαρτα Nέφη
Διάσπαρτα Nέφη
 Ανεμος από μεταβλητός
Ανεμος: μεταβλητός 4 km/h
Θερμοκρασία: 13°C
Σημ. Δρόσου: 12°C
Υγρασία: 94%
Βαρόμετρο: 1014 hPa
Νέφωση: Διάσπαρτα Nέφη
Ορατότητα: 10 km
Λεπτομέρειες Νεφών: Διάσπαρτα Nέφη 488 m
2024/03/04 04:50 LGRP 040450Z VRB02KT 9999 FEW016 13/12 Q1014 NOSIG
 
LWOH - Ohrid/FYROM-Elev 761m
Απόσταση από meteothes.gr: ΔΒΔ 188km
Ενημερώθηκε: 03/03/2024 22:00
ΜΗ Ενημερωμένο METAR!
Αίθριος
Αίθριος
 Ανεμος από Β
Ανεμος: Β 6 km/h
Θερμοκρασία: 4°C
Σημ. Δρόσου: 1°C
Υγρασία: 81%
Βαρόμετρο: 1013 hPa
Συνθήκες: Αίθριος
Ορατότητα: πάνω από 10 km
2024/03/03 20:00 LWOH 032000Z 35003KT CAVOK 04/01 Q1013
LBSF - Sofia/Bulgaria-Elev 595m
Απόσταση από meteothes.gr: Β 227km
Ενημερώθηκε: 04/03/2024 07:00
Καταχνιά, Μερικώς νεφελώδης
Καταχνιά, Μερικώς νεφελώδης
 Ανεμος από άπνοια
Ανεμος: άπνοια
Θερμοκρασία: 2°C
Σημ. Δρόσου: 1°C
Υγρασία: 93%
Βαρόμετρο: 1014 hPa
Συνθήκες: Καταχνιά
Νέφωση: Μερικώς νεφελώδης
Ορατότητα: 1 km
2024/03/04 05:00 LBSF 040500Z 00000KT 1300 R09/1600D BR NSC 02/01 Q1014 TEMPO 0800 BCFG

(*) Μερικές αναφορές παρουσιάζουν λιγότερα στοιχεία γιατί οι αρχικές είναι ελλιπείς ή έχουν λάθος μορφοποίηση!